Time;durP1;ratioP1;P1;durP2;ratioP2;P2;SDS_P1;SDS_P2;PMS_P1;PMS_P2;Temp;Humidity;BMP_temperature;BMP_pressure;BME280_temperature;BME280_humidity;BME280_pressure;Samples;Min_cycle;Max_cycle;Signal;HPM_P1;HPM_P2
2023/12/13 00:01:33;;;;;;;10.57;9.45;;;;;;;19.87;46.60;100068.69;4631425;31;20051;-60
2023/12/13 00:04:01;;;;;;;9.95;9.00;;;;;;;19.87;46.53;100085.63;4629983;31;20059;-61
2023/12/13 00:06:28;;;;;;;11.20;9.50;;;;;;;19.88;46.51;100083.78;4628303;31;20079;-60
2023/12/13 00:08:56;;;;;;;10.85;9.75;;;;;;;19.86;46.40;100092.00;4625683;31;20070;-60
2023/12/13 00:11:23;;;;;;;11.20;9.63;;;;;;;19.86;46.71;100093.88;4614070;31;20058;-61
2023/12/13 00:13:50;;;;;;;10.60;9.50;;;;;;;19.85;46.32;100095.72;4631208;31;20071;-60
2023/12/13 00:16:19;;;;;;;11.30;9.20;;;;;;;19.85;46.42;100081.41;4628784;31;20848;-61
2023/12/13 00:18:47;;;;;;;10.48;9.43;;;;;;;19.84;46.37;100102.06;4631302;31;20058;-63
2023/12/13 00:21:15;;;;;;;11.82;9.88;;;;;;;19.83;46.34;100116.50;4631141;31;20055;-62
2023/12/13 00:23:43;;;;;;;10.02;9.02;;;;;;;19.85;46.38;100124.38;4624519;31;20055;-62
2023/12/13 00:26:18;;;;;;;11.57;9.75;;;;;;;19.83;46.35;100113.81;4627577;31;20056;-60
2023/12/13 00:28:46;;;;;;;9.45;8.55;;;;;;;19.83;46.41;100118.34;4630846;31;20055;-60
2023/12/13 00:31:14;;;;;;;9.73;8.73;;;;;;;19.82;46.15;100105.91;4630899;31;20081;-60
2023/12/13 00:33:42;;;;;;;10.50;9.07;;;;;;;19.81;46.10;100105.06;4629946;31;20067;-60
2023/12/13 00:36:10;;;;;;;10.70;9.65;;;;;;;19.81;45.99;100088.09;4628797;31;20405;-62
2023/12/13 00:38:37;;;;;;;10.00;9.00;;;;;;;19.81;46.23;100104.19;4629961;31;20055;-62
2023/12/13 00:41:04;;;;;;;10.27;9.35;;;;;;;19.81;46.09;100085.41;4630804;31;20520;-62
2023/12/13 00:43:32;;;;;;;10.95;9.85;;;;;;;19.80;46.15;100078.34;4629801;31;20070;-62
2023/12/13 00:45:59;;;;;;;11.23;10.13;;;;;;;19.80;46.25;100060.38;4628358;31;20052;-61
2023/12/13 00:48:27;;;;;;;10.30;9.30;;;;;;;19.80;46.05;100046.94;4630734;31;20062;-62
2023/12/13 00:50:56;;;;;;;10.98;9.93;;;;;;;19.79;46.07;100058.69;4630683;31;20069;-62
2023/12/13 00:53:23;;;;;;;9.95;8.90;;;;;;;19.80;46.05;100056.84;4630104;31;20059;-62
2023/12/13 00:55:52;;;;;;;9.65;8.68;;;;;;;19.80;46.05;100063.06;4628985;31;20071;-60
2023/12/13 00:58:19;;;;;;;9.52;8.63;;;;;;;19.79;46.10;100064.06;4630586;31;20059;-60
2023/12/13 01:00:47;;;;;;;9.43;8.52;;;;;;;19.79;46.12;100057.84;4630302;31;20062;-60
2023/12/13 01:03:15;;;;;;;9.77;8.88;;;;;;;19.80;46.25;100070.28;4629063;31;20066;-60
2023/12/13 01:05:43;;;;;;;11.05;9.95;;;;;;;19.80;45.96;100071.13;4628830;31;20067;-61
2023/12/13 01:08:11;;;;;;;10.43;9.43;;;;;;;19.80;46.05;100051.47;4630151;31;20059;-61
2023/12/13 01:10:38;;;;;;;10.35;9.35;;;;;;;19.80;46.11;100052.31;4629340;30;20053;-62
2023/12/13 01:13:06;;;;;;;10.73;9.73;;;;;;;19.80;46.09;100062.22;4623698;30;20055;-62
2023/12/13 01:15:33;;;;;;;12.02;9.30;;;;;;;19.80;46.07;100064.91;4628398;31;20058;-62
2023/12/13 01:18:01;;;;;;;10.55;9.52;;;;;;;19.80;45.98;100064.91;4630417;31;20070;-60
2023/12/13 01:20:28;;;;;;;10.48;9.48;;;;;;;19.79;46.09;100079.34;4629852;31;20051;-60
2023/12/13 01:22:55;;;;;;;10.18;9.18;;;;;;;19.79;45.97;100087.41;4618905;31;20056;-60
2023/12/13 01:25:23;;;;;;;10.98;9.82;;;;;;;19.79;45.98;100071.28;4632372;30;20059;-60
2023/12/13 01:27:50;;;;;;;11.40;9.88;;;;;;;19.79;45.91;100079.34;4630080;31;20059;-60
2023/12/13 01:30:18;;;;;;;11.63;10.43;;;;;;;19.78;46.01;100073.13;4630205;31;20055;-60
2023/12/13 01:32:45;;;;;;;9.85;8.85;;;;;;;19.78;46.07;100061.56;4629188;31;20055;-60
2023/12/13 01:35:13;;;;;;;9.65;8.75;;;;;;;19.79;46.09;100060.53;4628216;31;20062;-60
2023/12/13 01:37:40;;;;;;;11.30;10.00;;;;;;;19.78;45.89;100081.19;4628761;31;20067;-60
2023/12/13 01:40:08;;;;;;;11.05;9.65;;;;;;;19.78;46.13;100086.56;4629583;31;20059;-60
2023/12/13 01:42:39;;;;;;;9.95;8.95;;;;;;;19.78;46.06;100061.56;4628335;31;20058;-60
2023/12/13 01:45:08;;;;;;;10.30;9.30;;;;;;;19.78;46.22;100067.75;4628799;31;20077;-60
2023/12/13 01:47:37;;;;;;;10.90;9.52;;;;;;;19.78;46.04;100032.00;4629471;31;20055;-61
2023/12/13 01:50:05;;;;;;;9.82;8.88;;;;;;;19.76;46.16;100043.72;4629227;31;20063;-62
2023/12/13 01:52:33;;;;;;;11.38;10.27;;;;;;;19.76;46.13;100043.72;4627700;31;20062;-62
2023/12/13 01:55:01;;;;;;;10.35;9.43;;;;;;;19.76;46.13;100035.66;4628718;31;20068;-62
2023/12/13 01:57:29;;;;;;;13.13;9.73;;;;;;;19.76;46.22;100032.16;4629468;31;20059;-60
2023/12/13 01:59:57;;;;;;;10.27;9.23;;;;;;;19.75;46.15;100031.31;4629341;31;20063;-60
2023/12/13 02:02:24;;;;;;;10.70;9.63;;;;;;;19.75;46.14;100031.31;4627353;31;20059;-60
2023/12/13 02:04:53;;;;;;;9.93;8.93;;;;;;;19.75;46.10;100025.94;4628376;31;20060;-60
2023/12/13 02:07:22;;;;;;;11.65;9.52;;;;;;;19.75;46.10;99998.25;4629527;31;20066;-60
2023/12/13 02:09:49;;;;;;;10.75;9.05;;;;;;;19.75;46.30;99977.59;4629609;31;20055;-60
2023/12/13 02:12:16;;;;;;;10.32;9.13;;;;;;;19.74;46.03;99972.38;4602951;31;20421;-60
2023/12/13 02:14:44;;;;;;;10.55;9.55;;;;;;;19.74;46.32;99986.66;4628918;31;20051;-60
2023/12/13 02:17:13;;;;;;;10.88;9.77;;;;;;;19.74;46.16;100004.63;4629227;31;20070;-60
2023/12/13 02:19:40;;;;;;;10.70;9.60;;;;;;;19.73;46.26;99993.03;4629051;31;20055;-60
2023/12/13 02:22:08;;;;;;;11.15;9.15;;;;;;;19.74;46.32;99996.56;4624457;31;20062;-60
2023/12/13 02:24:39;;;;;;;10.88;9.75;;;;;;;19.73;46.18;99992.19;4628975;31;20055;-60
2023/12/13 02:27:06;;;;;;;10.50;9.45;;;;;;;19.73;46.27;99995.72;4629098;31;20082;-61
2023/12/13 02:29:34;;;;;;;11.10;9.93;;;;;;;19.72;46.27;99983.25;4628748;31;20051;-62
2023/12/13 02:32:01;;;;;;;10.57;9.57;;;;;;;19.73;46.33;99984.13;4626112;31;20484;-62
2023/12/13 02:34:28;;;;;;;10.38;9.30;;;;;;;19.71;46.23;99986.13;4628865;31;20416;-62
2023/12/13 02:36:56;;;;;;;11.25;10.15;;;;;;;19.72;46.36;99966.31;4628846;31;20055;-60
2023/12/13 02:39:23;;;;;;;10.50;9.50;;;;;;;19.72;46.25;99972.53;4628857;31;20569;-60
2023/12/13 02:41:50;;;;;;;11.32;10.13;;;;;;;19.72;46.25;99983.25;4625275;31;20052;-60
2023/12/13 02:44:18;;;;;;;10.63;9.52;;;;;;;19.72;46.15;99985.09;4608737;31;20062;-60
2023/12/13 02:46:45;;;;;;;11.10;10.00;;;;;;;19.71;46.33;99980.75;4628717;31;20438;-61
2023/12/13 02:49:12;;;;;;;10.25;9.13;;;;;;;19.73;46.16;99959.97;4628400;31;20070;-62
2023/12/13 02:51:40;;;;;;;10.70;9.60;;;;;;;19.72;46.24;99953.72;4626827;31;20058;-62
2023/12/13 02:54:07;;;;;;;10.18;9.18;;;;;;;19.72;46.27;99931.41;4608992;31;20059;-62
2023/12/13 02:56:35;;;;;;;11.10;9.73;;;;;;;19.72;46.08;99931.41;4629033;31;20059;-61
2023/12/13 02:59:03;;;;;;;12.95;10.45;;;;;;;19.73;46.36;99922.38;4628611;31;20059;-62
2023/12/13 03:01:30;;;;;;;10.75;9.65;;;;;;;19.72;46.27;99907.22;4626083;31;20063;-62
2023/12/13 03:03:57;;;;;;;10.15;9.10;;;;;;;19.72;46.24;99936.78;4608879;31;20063;-62
2023/12/13 03:06:25;;;;;;;10.60;9.50;;;;;;;19.71;46.35;99919.81;4628754;31;20423;-61
2023/12/13 03:08:52;;;;;;;11.10;9.95;;;;;;;19.70;46.11;99947.69;4628822;31;20059;-62
2023/12/13 03:11:20;;;;;;;11.15;9.90;;;;;;;19.72;46.19;99929.56;4623774;31;20044;-62
2023/12/13 03:13:47;;;;;;;10.27;9.27;;;;;;;19.72;46.36;99942.97;4606603;31;20051;-62
2023/12/13 03:16:15;;;;;;;10.82;9.35;;;;;;;19.72;46.15;99928.72;4628522;31;20055;-61
2023/12/13 03:18:42;;;;;;;11.32;10.15;;;;;;;19.72;46.23;99931.41;4628608;31;20081;-62
2023/12/13 03:21:10;;;;;;;11.60;9.98;;;;;;;19.71;46.29;99924.34;4625406;31;20055;-62
2023/12/13 03:23:37;;;;;;;10.35;9.32;;;;;;;19.69;46.44;99905.72;4618590;31;20071;-62
2023/12/13 03:26:04;;;;;;;11.27;10.15;;;;;;;19.70;46.38;99885.91;4623207;31;20509;-62
2023/12/13 03:28:32;;;;;;;11.93;10.73;;;;;;;19.71;46.33;99903.72;4628595;30;20067;-62
2023/12/13 03:30:59;;;;;;;11.48;10.38;;;;;;;19.70;46.36;99909.25;4625792;31;20048;-62
2023/12/13 03:33:27;;;;;;;12.00;10.55;;;;;;;19.70;46.47;99899.34;4608897;31;20052;-61
2023/12/13 03:35:54;;;;;;;11.68;9.77;;;;;;;19.70;46.37;99910.09;4628396;30;20059;-62
2023/12/13 03:38:21;;;;;;;12.38;10.57;;;;;;;19.69;46.41;99908.41;4627775;30;20059;-62
2023/12/13 03:40:49;;;;;;;11.80;10.15;;;;;;;19.70;46.42;99899.34;4625567;30;20051;-61
2023/12/13 03:43:16;;;;;;;12.18;9.82;;;;;;;19.70;46.56;99896.66;4609075;31;20073;-62
2023/12/13 03:45:45;;;;;;;11.57;9.65;;;;;;;19.71;46.69;99889.44;4628867;31;20066;-62
2023/12/13 03:48:12;;;;;;;10.45;9.27;;;;;;;19.72;46.80;99902.69;4628756;31;20067;-60
2023/12/13 03:50:40;;;;;;;11.40;10.27;;;;;;;19.71;46.83;99892.13;4625357;31;20059;-60
2023/12/13 03:53:07;;;;;;;12.35;10.90;;;;;;;19.72;46.63;99897.34;4608747;31;20055;-60
2023/12/13 03:55:35;;;;;;;11.48;10.23;;;;;;;19.71;46.58;99916.31;4628526;31;20086;-60
2023/12/13 03:58:02;;;;;;;11.80;10.60;;;;;;;19.70;46.70;99893.13;4628144;31;20077;-61
2023/12/13 04:00:29;;;;;;;12.25;10.77;;;;;;;19.70;46.61;99890.44;4624951;30;20427;-62
2023/12/13 04:02:57;;;;;;;11.98;10.43;;;;;;;19.71;46.77;99892.13;4618975;31;20070;-62
2023/12/13 04:05:24;;;;;;;11.80;9.95;;;;;;;19.70;46.90;99896.66;4637232;30;20530;-62
2023/12/13 04:07:54;;;;;;;11.38;10.15;;;;;;;19.70;47.01;99891.28;4627745;31;20062;-61
2023/12/13 04:10:21;;;;;;;11.35;9.80;;;;;;;19.69;47.00;99903.03;4624927;31;20067;-62
2023/12/13 04:12:49;;;;;;;12.48;11.27;;;;;;;19.70;46.62;99895.81;4621726;31;20409;-62
2023/12/13 04:15:16;;;;;;;12.70;11.32;;;;;;;19.69;46.65;99894.97;4617329;31;20082;-62
2023/12/13 04:17:44;;;;;;;12.15;10.93;;;;;;;19.68;46.67;99879.84;4631065;31;20051;-60
2023/12/13 04:20:11;;;;;;;15.07;12.48;;;;;;;19.68;46.69;99879.84;4628248;31;20107;-60
2023/12/13 04:22:38;;;;;;;12.90;11.57;;;;;;;19.68;46.50;99879.00;4629367;31;20056;-60
2023/12/13 04:25:06;;;;;;;14.70;11.50;;;;;;;19.67;46.66;99880.84;4630794;31;20070;-60
2023/12/13 04:27:33;;;;;;;12.88;11.32;;;;;;;19.68;46.72;99873.63;4631303;31;20495;-60
2023/12/13 04:30:01;;;;;;;13.43;11.52;;;;;;;19.68;46.54;99884.38;4627858;31;20522;-60
2023/12/13 04:32:28;;;;;;;13.00;10.85;;;;;;;19.67;46.49;99894.28;4630566;31;20119;-60
2023/12/13 04:34:57;;;;;;;14.25;12.38;;;;;;;19.67;46.43;99891.59;4630637;31;20412;-60
2023/12/13 04:37:25;;;;;;;14.15;11.15;;;;;;;19.68;46.58;99879.84;4630909;31;20526;-60
2023/12/13 04:39:52;;;;;;;14.05;11.93;;;;;;;19.67;46.43;99874.66;4627504;31;20060;-60
2023/12/13 04:42:20;;;;;;;13.13;11.48;;;;;;;19.66;46.56;99879.19;4630415;31;20051;-61
2023/12/13 04:44:47;;;;;;;12.68;11.38;;;;;;;19.67;46.52;99880.84;4630437;31;20090;-60
2023/12/13 04:47:14;;;;;;;13.55;12.00;;;;;;;19.66;46.42;99871.13;4630772;31;20062;-60
2023/12/13 04:49:42;;;;;;;13.73;11.85;;;;;;;19.67;46.61;99866.59;4627626;31;20059;-60
2023/12/13 04:52:09;;;;;;;14.13;12.15;;;;;;;19.66;46.50;99865.75;4630677;31;20416;-60
2023/12/13 04:54:37;;;;;;;13.63;12.18;;;;;;;19.67;46.40;99877.34;4630817;31;20074;-60
2023/12/13 04:57:05;;;;;;;13.05;11.55;;;;;;;19.67;46.60;99878.16;4630873;31;20051;-61
2023/12/13 04:59:32;;;;;;;12.77;11.38;;;;;;;19.67;46.46;99875.50;4627714;31;20370;-62
2023/12/13 05:01:59;;;;;;;14.25;12.75;;;;;;;19.67;46.52;99888.91;4621758;31;20073;-62
2023/12/13 05:04:27;;;;;;;13.55;11.70;;;;;;;19.68;46.60;99873.63;4630658;31;20076;-62
2023/12/13 05:06:54;;;;;;;14.75;12.55;;;;;;;19.67;46.64;99882.72;4630140;31;20059;-61
2023/12/13 05:09:21;;;;;;;14.15;11.55;;;;;;;19.66;46.75;99878.34;4627114;31;20056;-62
2023/12/13 05:11:49;;;;;;;13.90;11.85;;;;;;;19.66;46.53;99875.66;4630511;31;20059;-62
2023/12/13 05:14:16;;;;;;;14.18;12.68;;;;;;;19.67;46.59;99883.53;4619303;31;20071;-62
2023/12/13 05:16:44;;;;;;;15.23;13.10;;;;;;;19.67;46.70;99893.44;4624158;31;20059;-62
2023/12/13 05:19:11;;;;;;;13.82;12.43;;;;;;;19.67;46.59;99893.44;4627110;31;20058;-62
2023/12/13 05:21:39;;;;;;;15.05;12.73;;;;;;;19.67;46.68;99898.81;4627256;31;20056;-62
2023/12/13 05:24:06;;;;;;;13.30;11.73;;;;;;;19.66;46.53;99913.25;4624754;31;20702;-62
2023/12/13 05:26:34;;;;;;;14.10;12.50;;;;;;;19.66;46.50;99903.34;4629691;31;20055;-61
2023/12/13 05:29:02;;;;;;;14.27;11.82;;;;;;;19.67;46.56;99910.41;4626845;31;20060;-62
2023/12/13 05:31:29;;;;;;;14.32;12.55;;;;;;;19.66;46.63;99894.44;4629768;31;20070;-60
2023/12/13 05:33:57;;;;;;;12.70;11.40;;;;;;;19.66;46.62;99903.34;4630098;31;20059;-60
2023/12/13 05:36:24;;;;;;;14.18;12.68;;;;;;;19.66;46.56;99887.25;4630102;31;20059;-61
2023/12/13 05:38:51;;;;;;;13.55;11.55;;;;;;;19.66;46.66;99889.91;4626622;31;20086;-62
2023/12/13 05:41:19;;;;;;;15.13;12.68;;;;;;;19.66;46.66;99883.72;4629759;30;20496;-62
2023/12/13 05:43:46;;;;;;;14.65;11.57;;;;;;;19.66;46.57;99873.81;4629772;31;20067;-62
2023/12/13 05:46:13;;;;;;;12.93;11.63;;;;;;;19.65;46.73;99869.44;4629667;31;20055;-60
2023/12/13 05:48:41;;;;;;;13.45;11.88;;;;;;;19.65;46.74;99839.91;4627206;31;20079;-60
2023/12/13 05:51:08;;;;;;;15.40;13.05;;;;;;;19.64;46.53;99848.94;4629585;31;20055;-60
2023/12/13 05:53:35;;;;;;;12.55;11.05;;;;;;;19.65;46.72;99847.97;4629715;31;20055;-60
2023/12/13 05:56:03;;;;;;;14.50;12.25;;;;;;;19.64;46.63;99832.84;4629414;31;20055;-60
2023/12/13 05:58:30;;;;;;;13.98;12.40;;;;;;;19.64;46.64;99842.72;4626293;31;20595;-60
2023/12/13 06:00:57;;;;;;;14.35;12.00;;;;;;;19.65;46.78;99841.75;4610741;31;20059;-60
2023/12/13 06:03:25;;;;;;;14.52;12.43;;;;;;;19.65;46.64;99839.06;4629097;31;20122;-60
2023/12/13 06:05:54;;;;;;;13.15;11.18;;;;;;;19.64;46.66;99834.69;4629067;30;20071;-60
2023/12/13 06:08:22;;;;;;;13.98;11.75;;;;;;;19.64;46.56;99832.00;4626327;31;20055;-60
2023/12/13 06:10:49;;;;;;;14.85;13.00;;;;;;;19.64;46.70;99824.78;4628826;30;20070;-60
2023/12/13 06:13:17;;;;;;;14.52;12.23;;;;;;;19.64;46.86;99822.09;4629168;31;20054;-60
2023/12/13 06:15:46;;;;;;;14.13;12.13;;;;;;;19.63;46.73;99817.72;4609815;31;20056;-61
2023/12/13 06:18:13;;;;;;;15.07;13.48;;;;;;;19.64;46.79;99816.72;4623014;31;20064;-62
2023/12/13 06:20:41;;;;;;;15.50;11.55;;;;;;;19.63;46.89;99828.47;4628978;31;20798;-62
2023/12/13 06:23:08;;;;;;;15.60;13.88;;;;;;;19.63;46.76;99817.72;4628220;30;20055;-62
2023/12/13 06:25:36;;;;;;;13.48;12.02;;;;;;;19.64;46.62;99815.88;4629001;31;20051;-62
2023/12/13 06:28:04;;;;;;;14.82;12.60;;;;;;;19.63;46.70;99806.16;4624214;31;20354;-61
2023/12/13 06:30:31;;;;;;;15.13;12.55;;;;;;;19.63;46.69;99807.00;4641366;30;20063;-62
2023/12/13 06:32:59;;;;;;;15.50;12.48;;;;;;;19.64;46.66;99813.19;4628835;31;20062;-62
2023/12/13 06:35:26;;;;;;;14.85;11.68;;;;;;;19.63;46.59;99825.78;4629025;31;20500;-62
2023/12/13 06:37:54;;;;;;;16.42;13.27;;;;;;;19.64;46.83;99810.50;4640781;30;20066;-60
2023/12/13 06:40:21;;;;;;;17.15;14.27;;;;;;;19.64;46.57;99803.31;4628551;30;20067;-60
2023/12/13 06:42:49;;;;;;;15.43;13.30;;;;;;;19.64;46.67;99802.47;4629073;31;20512;-60
2023/12/13 06:45:16;;;;;;;14.45;11.93;;;;;;;19.63;46.77;99798.09;4628847;31;20059;-60
2023/12/13 06:47:44;;;;;;;16.63;13.20;;;;;;;19.63;46.78;99788.19;4628367;31;20063;-60
2023/12/13 06:50:11;;;;;;;14.10;12.10;;;;;;;19.65;46.73;99794.25;4629357;31;20062;-60
2023/12/13 06:52:39;;;;;;;15.23;12.63;;;;;;;19.63;46.71;99777.47;4628774;31;20062;-60
2023/12/13 06:55:07;;;;;;;13.98;12.20;;;;;;;19.63;46.75;99784.69;4628915;31;20096;-60
2023/12/13 06:57:34;;;;;;;16.52;13.85;;;;;;;19.64;46.81;99775.59;4626021;31;20055;-62
2023/12/13 07:00:03;;;;;;;14.32;12.35;;;;;;;19.64;46.68;99757.66;4628500;31;20055;-62
2023/12/13 07:02:31;;;;;;;16.17;13.63;;;;;;;19.63;46.69;99763.19;4628791;31;20062;-62
2023/12/13 07:04:58;;;;;;;18.20;13.68;;;;;;;19.63;46.68;99758.66;4628688;31;20531;-62
2023/12/13 07:07:26;;;;;;;20.85;13.35;;;;;;;19.63;46.66;99772.09;4638063;30;20064;-60
2023/12/13 07:09:53;;;;;;;16.85;13.25;;;;;;;19.62;46.51;99772.25;4628309;31;20063;-60
2023/12/13 07:12:21;;;;;;;15.32;13.23;;;;;;;19.63;46.65;99763.19;4628673;31;20055;-60
2023/12/13 07:14:48;;;;;;;17.90;13.45;;;;;;;19.62;46.68;99762.34;4628620;31;20058;-60
2023/12/13 07:17:15;;;;;;;16.75;13.55;;;;;;;19.62;46.39;99767.72;4604549;31;20063;-60
2023/12/13 07:19:43;;;;;;;17.85;14.40;;;;;;;19.63;46.65;99768.56;4625791;31;20052;-60
2023/12/13 07:22:10;;;;;;;17.63;14.82;;;;;;;19.63;46.86;99747.09;4613442;31;20058;-59
2023/12/13 07:24:38;;;;;;;16.83;14.10;;;;;;;19.64;46.57;99749.59;4628147;31;20051;-60
2023/12/13 07:27:05;;;;;;;20.67;14.55;;;;;;;19.65;46.94;99755.84;4614667;31;20060;-59
2023/12/13 07:29:33;;;;;;;16.35;13.82;;;;;;;19.64;47.12;99764.88;4641326;30;20066;-59
2023/12/13 07:32:00;;;;;;;15.30;13.25;;;;;;;19.64;47.08;99763.03;4628467;31;20062;-60
2023/12/13 07:34:28;;;;;;;15.80;13.50;;;;;;;19.65;46.97;99771.94;4628139;31;20062;-59
2023/12/13 07:36:56;;;;;;;20.08;13.70;;;;;;;19.68;47.13;99768.91;4625934;31;20063;-58
2023/12/13 07:39:24;;;;;;;21.05;15.13;;;;;;;19.70;47.01;99769.63;4628446;31;20060;-62
2023/12/13 07:41:52;;;;;;;17.35;13.70;;;;;;;19.70;47.15;99758.88;4627945;31;20059;-62
2023/12/13 07:44:19;;;;;;;18.02;14.55;;;;;;;19.69;46.99;99771.47;4628185;31;20059;-59
2023/12/13 07:46:46;;;;;;;20.27;13.40;;;;;;;19.68;47.12;99766.22;4625709;31;20508;-56
2023/12/13 07:49:14;;;;;;;20.08;14.40;;;;;;;19.68;47.24;99761.69;4630946;31;20067;-57
2023/12/13 07:51:41;;;;;;;16.25;12.88;;;;;;;19.66;47.30;99755.66;4632176;30;20060;-56
2023/12/13 07:54:09;;;;;;;20.83;13.48;;;;;;;19.66;47.21;99762.88;4631328;31;20063;-57
2023/12/13 07:56:36;;;;;;;20.52;15.43;;;;;;;19.66;46.81;99768.25;4628996;31;20058;-57
2023/12/13 07:59:04;;;;;;;21.80;16.25;;;;;;;19.64;46.70;99749.59;4631489;30;20082;-56
2023/12/13 08:01:31;;;;;;;23.70;15.32;;;;;;;19.64;46.76;99765.72;4631635;31;20059;-57
2023/12/13 08:03:58;;;;;;;20.60;15.20;;;;;;;19.65;46.80;99766.59;4631146;31;20059;-56
2023/12/13 08:06:26;;;;;;;16.73;13.68;;;;;;;19.63;46.59;99780.16;4621284;31;20059;-59
2023/12/13 08:08:53;;;;;;;18.98;14.73;;;;;;;19.63;46.75;99782.00;4623868;31;20059;-59
2023/12/13 08:11:20;;;;;;;17.92;15.15;;;;;;;19.63;46.76;99774.78;4630973;31;20063;-59
2023/12/13 08:13:48;;;;;;;19.13;14.30;;;;;;;19.63;46.69;99784.69;4631185;31;20059;-59
2023/12/13 08:16:15;;;;;;;20.65;15.23;;;;;;;19.62;46.49;99783.00;4628231;31;20059;-58
2023/12/13 08:18:43;;;;;;;20.40;14.88;;;;;;;19.62;46.57;99774.94;4618073;31;20055;-59
2023/12/13 08:21:10;;;;;;;19.45;15.35;;;;;;;19.61;46.42;99768.75;4643872;30;20107;-59
2023/12/13 08:23:39;;;;;;;16.73;14.13;;;;;;;19.61;46.57;99782.16;4631609;31;20060;-59
2023/12/13 08:26:06;;;;;;;19.88;15.68;;;;;;;19.60;46.48;99777.72;4628309;31;20055;-58
2023/12/13 08:28:34;;;;;;;19.88;15.00;;;;;;;19.60;46.59;99785.78;4630721;31;20051;-59
2023/12/13 08:31:03;;;;;;;20.70;15.75;;;;;;;19.60;46.32;99776.91;4631014;31;20056;-59
2023/12/13 08:33:46;;;;;;;18.20;14.65;;;;;;;19.60;46.38;99763.47;4628540;31;20082;-59
2023/12/13 08:36:14;;;;;;;19.65;14.90;;;;;;;19.59;46.31;99778.75;4630201;31;20062;-57
2023/12/13 08:38:42;;;;;;;18.83;13.90;;;;;;;19.59;46.40;99777.91;4630978;31;20059;-57
2023/12/13 08:41:12;;;;;;;19.77;15.35;;;;;;;19.60;46.41;99775.06;4630897;31;20070;-57
2023/12/13 08:43:39;;;;;;;17.55;13.30;;;;;;;19.59;46.46;99765.31;4628388;31;20056;-56
2023/12/13 08:46:07;;;;;;;17.35;13.93;;;;;;;19.59;46.54;99768.00;4630785;31;20059;-56
2023/12/13 08:48:34;;;;;;;18.67;13.98;;;;;;;19.59;46.59;99757.25;4630761;31;20055;-57
2023/12/13 08:51:05;;;;;;;21.77;14.63;;;;;;;19.59;46.43;99773.38;4630873;31;20059;-56
2023/12/13 08:53:32;;;;;;;30.95;21.05;;;;;;;19.55;46.10;99766.63;4627644;31;20056;-55
2023/12/13 08:55:59;;;;;;;35.25;25.48;;;;;;;19.42;45.72;99782.34;4622401;31;20380;-55
2023/12/13 08:58:30;;;;;;;37.65;26.50;;;;;;;19.24;45.43;99785.03;4630931;30;20059;-55
2023/12/13 09:00:58;;;;;;;39.15;27.33;;;;;;;19.00;45.41;99786.56;4630719;31;20063;-54
2023/12/13 09:03:27;;;;;;;39.40;26.38;;;;;;;18.77;45.50;99777.31;4627576;31;20059;-54
2023/12/13 09:05:54;;;;;;;40.10;27.13;;;;;;;18.57;45.67;99773.06;4630692;31;20066;-59
2023/12/13 09:08:23;;;;;;;37.58;25.38;;;;;;;18.54;45.75;99784.91;4630382;31;20504;-55
2023/12/13 09:10:50;;;;;;;36.75;26.85;;;;;;;18.59;45.87;99773.72;4630210;31;20059;-58
2023/12/13 09:13:17;;;;;;;33.83;26.10;;;;;;;18.66;45.84;99781.00;4625343;31;20056;-59
2023/12/13 09:15:45;;;;;;;38.75;26.08;;;;;;;18.72;45.82;99787.66;4630099;31;20059;-57
2023/12/13 09:18:12;;;;;;;34.15;22.95;;;;;;;18.80;46.14;99785.06;4633874;30;20067;-59
2023/12/13 09:20:43;;;;;;;32.10;22.15;;;;;;;18.86;46.07;99786.25;4609273;31;20048;-59
2023/12/13 09:23:19;;;;;;;32.75;21.73;;;;;;;18.93;45.99;99781.97;4616433;31;20496;-55
2023/12/13 09:25:46;;;;;;;31.50;21.90;;;;;;;18.96;45.85;99781.66;4622036;31;20047;-58
2023/12/13 09:28:14;;;;;;;32.10;23.17;;;;;;;18.99;45.59;99792.06;4616003;31;20060;-60
2023/12/13 09:30:42;;;;;;;34.55;23.67;;;;;;;19.03;45.45;99788.06;4618381;31;20052;-59
2023/12/13 09:33:11;;;;;;;31.85;22.60;;;;;;;19.07;45.26;99794.81;4615707;31;20515;-58
2023/12/13 09:35:38;;;;;;;31.33;22.45;;;;;;;19.09;45.19;99782.09;4615994;31;20052;-55
2023/12/13 09:38:06;;;;;;;34.70;22.58;;;;;;;19.12;45.28;99792.53;4618701;31;20073;-51
2023/12/13 09:40:33;;;;;;;31.20;23.10;;;;;;;19.09;45.41;99792.84;4615650;31;20074;-56
2023/12/13 09:43:02;;;;;;;28.63;21.88;;;;;;;18.96;45.26;99792.41;4616026;31;20067;-55
2023/12/13 09:45:31;;;;;;;29.90;22.15;;;;;;;18.76;45.43;99794.41;4615767;31;20062;-55
2023/12/13 09:47:59;;;;;;;30.90;21.80;;;;;;;18.55;45.47;99773.19;4615670;31;20444;-55
2023/12/13 09:50:32;;;;;;;28.33;22.50;;;;;;;18.38;45.79;99776.72;4616120;31;20055;-60
2023/12/13 09:53:00;;;;;;;26.67;21.15;;;;;;;18.35;46.00;99772.50;4615504;31;20060;-59
2023/12/13 09:55:28;;;;;;;29.25;20.83;;;;;;;18.40;46.12;99767.53;4615525;31;20410;-59
2023/12/13 09:57:56;;;;;;;25.83;18.77;;;;;;;18.49;46.30;99771.13;4615245;31;20504;-59
2023/12/13 10:00:24;;;;;;;22.30;18.08;;;;;;;18.57;46.33;99773.91;4615616;31;20071;-59
2023/12/13 10:02:51;;;;;;;24.33;17.38;;;;;;;18.65;46.45;99762.41;4615426;31;20063;-59
2023/12/13 10:05:22;;;;;;;24.30;18.10;;;;;;;18.73;46.43;99766.03;4615252;31;20075;-59
2023/12/13 10:07:59;;;;;;;21.27;16.52;;;;;;;18.78;46.58;99753.00;4618041;31;20056;-60
2023/12/13 10:10:31;;;;;;;24.00;16.20;;;;;;;18.85;46.48;99750.56;4613355;31;20055;-61
2023/12/13 10:13:01;;;;;;;18.70;15.45;;;;;;;18.88;46.51;99736.84;4615351;31;20444;-61
2023/12/13 10:15:32;;;;;;;18.83;14.73;;;;;;;18.94;46.41;99730.00;4618171;31;20497;-61
2023/12/13 10:18:03;;;;;;;22.95;16.05;;;;;;;18.98;46.30;99736.75;4615305;31;20066;-58
2023/12/13 10:20:31;;;;;;;26.38;16.38;;;;;;;19.00;46.33;99745.50;4602359;31;20060;-58
2023/12/13 10:23:01;;;;;;;21.27;14.75;;;;;;;19.02;46.25;99724.72;4615377;31;20515;-58
2023/12/13 10:25:29;;;;;;;18.83;14.10;;;;;;;19.05;46.12;99724.41;4615212;31;20048;-58
2023/12/13 10:27:57;;;;;;;19.70;15.57;;;;;;;19.08;46.08;99726.78;4621077;30;20063;-58
2023/12/13 10:30:25;;;;;;;21.75;15.68;;;;;;;19.09;46.01;99717.72;4614929;31;20063;-58
2023/12/13 10:32:52;;;;;;;18.35;14.27;;;;;;;19.11;45.93;99714.88;4615648;31;20063;-58
2023/12/13 10:35:22;;;;;;;18.27;13.60;;;;;;;19.11;46.08;99710.34;4615143;31;20051;-58
2023/12/13 10:37:51;;;;;;;19.25;14.65;;;;;;;19.14;46.03;99707.34;4615646;31;20104;-58
2023/12/13 10:40:20;;;;;;;17.95;13.25;;;;;;;19.16;45.96;99700.00;4607937;31;20064;-58
2023/12/13 10:42:52;;;;;;;17.75;14.20;;;;;;;19.18;45.97;99695.31;4615164;31;20071;-59
2023/12/13 10:45:23;;;;;;;16.30;12.23;;;;;;;19.18;46.06;99695.31;4615090;31;20059;-59
2023/12/13 10:47:59;;;;;;;17.83;12.98;;;;;;;19.20;46.17;99685.28;4615369;31;20051;-59
2023/12/13 10:50:28;;;;;;;15.85;12.73;;;;;;;19.21;46.17;99667.31;4614979;31;20064;-59
2023/12/13 10:52:58;;;;;;;16.35;11.95;;;;;;;19.21;46.13;99678.91;4614680;31;20056;-59
2023/12/13 10:55:26;;;;;;;15.55;11.85;;;;;;;19.22;45.92;99677.06;4617654;31;20055;-59
2023/12/13 10:57:53;;;;;;;17.33;12.63;;;;;;;19.21;46.09;99668.16;4615283;31;20067;-59
2023/12/13 11:00:25;;;;;;;20.65;14.13;;;;;;;19.23;46.05;99676.03;4614670;31;20110;-60
2023/12/13 11:02:59;;;;;;;17.42;13.45;;;;;;;19.23;46.03;99663.47;4615573;31;20068;-60
2023/12/13 11:05:27;;;;;;;22.98;15.73;;;;;;;19.22;45.59;99669.00;4613649;31;20052;-60
2023/12/13 11:07:54;;;;;;;19.00;14.55;;;;;;;19.22;45.61;99651.06;4616025;31;20063;-60
2023/12/13 11:10:22;;;;;;;19.25;14.98;;;;;;;19.22;45.58;99653.75;4616400;31;20068;-60
2023/12/13 11:12:52;;;;;;;21.48;14.05;;;;;;;19.23;46.01;99643.84;4616812;31;20070;-60
2023/12/13 11:15:19;;;;;;;16.50;13.43;;;;;;;19.23;45.86;99642.00;4617387;30;20063;-60
2023/12/13 11:17:54;;;;;;;14.07;11.52;;;;;;;19.25;45.87;99645.38;4629855;30;20055;-59
2023/12/13 11:20:22;;;;;;;21.45;14.13;;;;;;;19.27;46.08;99642.53;4607994;31;20063;-59
2023/12/13 11:22:49;;;;;;;17.33;13.85;;;;;;;19.26;45.84;99635.47;4604846;31;20071;-59